Time;durP1;ratioP1;P1;durP2;ratioP2;P2;SDS_P1;SDS_P2;PMS_P1;PMS_P2;Temp;Humidity;BMP_temperature;BMP_pressure;BME280_temperature;BME280_humidity;BME280_pressure;Samples;Min_cycle;Max_cycle;Signal;HPM_P1;HPM_P2
2021/08/16 00:00:20;;;;;;;18.05;2.90;;;;;;;18.89;73.99;100911.13;5090414;27;20047;-60
2021/08/16 00:02:47;;;;;;;11.15;2.92;;;;;;;18.91;73.69;100906.44;5093055;28;20047;-60
2021/08/16 00:05:15;;;;;;;12.25;3.03;;;;;;;18.98;73.52;100912.59;5085803;28;20131;-61
2021/08/16 00:07:42;;;;;;;9.20;2.77;;;;;;;19.13;72.49;100901.78;5101467;28;20563;-62
2021/08/16 00:10:11;;;;;;;12.52;3.10;;;;;;;19.02;73.01;100908.53;5082714;28;20926;-60
2021/08/16 00:12:38;;;;;;;12.73;3.08;;;;;;;19.05;71.92;100902.81;5088039;28;20135;-61
2021/08/16 00:15:05;;;;;;;13.45;3.35;;;;;;;18.89;73.02;100901.31;5094357;28;20494;-59
2021/08/16 00:17:32;;;;;;;12.82;2.92;;;;;;;18.97;71.91;100897.66;5080298;28;20619;-61
2021/08/16 00:19:58;;;;;;;14.43;2.80;;;;;;;19.03;71.85;100901.34;5092513;28;20134;-61
2021/08/16 00:22:25;;;;;;;13.35;3.35;;;;;;;18.52;74.40;100892.78;5095539;28;20174;-61
2021/08/16 00:24:51;;;;;;;18.95;3.47;;;;;;;18.34;75.35;100895.91;5089375;28;20130;-61
2021/08/16 00:27:18;;;;;;;9.57;3.00;;;;;;;18.41;75.07;100884.53;5091820;28;20128;-61
2021/08/16 00:29:44;;;;;;;20.98;3.65;;;;;;;18.53;74.23;100885.63;5092653;28;20126;-62
2021/08/16 00:32:10;;;;;;;15.48;3.22;;;;;;;18.58;73.73;100880.50;5089569;28;20499;-61
2021/08/16 00:34:37;;;;;;;16.33;3.97;;;;;;;18.74;73.24;100874.06;5090175;28;20094;-62
2021/08/16 00:37:03;;;;;;;12.70;3.40;;;;;;;18.23;75.69;100882.38;5092196;28;20130;-62
2021/08/16 00:39:30;;;;;;;22.35;3.85;;;;;;;17.96;77.35;100887.53;5081901;28;20159;-61
2021/08/16 00:41:57;;;;;;;17.98;3.60;;;;;;;17.87;77.97;100888.69;5097127;28;20127;-62
2021/08/16 00:44:24;;;;;;;15.63;3.80;;;;;;;18.06;77.30;100884.53;5086747;28;20048;-60
2021/08/16 00:46:50;;;;;;;11.52;3.03;;;;;;;18.33;75.68;100888.19;5095939;28;20220;-60
2021/08/16 00:49:17;;;;;;;16.83;3.22;;;;;;;18.46;75.30;100882.91;5090188;28;20047;-61
2021/08/16 00:51:44;;;;;;;20.05;3.95;;;;;;;18.21;76.38;100879.09;5075824;28;20143;-61
2021/08/16 00:54:10;;;;;;;23.27;4.03;;;;;;;17.90;78.25;100878.50;5094648;28;20137;-61
2021/08/16 00:56:38;;;;;;;21.15;3.83;;;;;;;18.02;78.23;100878.78;5088347;28;20415;-61
2021/08/16 00:59:07;;;;;;;18.20;3.67;;;;;;;17.87;79.17;100880.72;5097169;28;20119;-60
2021/08/16 01:01:33;;;;;;;17.58;3.78;;;;;;;18.28;77.07;100879.97;5086209;28;20080;-61
2021/08/16 01:04:00;;;;;;;17.85;3.35;;;;;;;18.17;77.39;100890.13;5096828;28;20091;-61
2021/08/16 01:06:27;;;;;;;14.75;3.15;;;;;;;18.21;77.38;100889.72;5091019;28;20580;-61
2021/08/16 01:08:53;;;;;;;19.85;3.70;;;;;;;17.91;78.79;100881.97;5081659;28;20090;-58
2021/08/16 01:11:21;;;;;;;18.35;3.97;;;;;;;17.81;79.45;100889.41;5103741;27;20063;-61
2021/08/16 01:13:49;;;;;;;21.53;4.03;;;;;;;17.77;79.87;100883.69;5088287;28;20131;-61
2021/08/16 01:16:18;;;;;;;11.60;3.08;;;;;;;18.34;77.31;100887.16;5092930;28;20079;-62
2021/08/16 01:18:46;;;;;;;20.70;4.07;;;;;;;18.20;78.20;100882.78;5083572;28;20491;-61
2021/08/16 01:21:14;;;;;;;20.05;3.78;;;;;;;17.83;79.87;100898.81;5090493;28;20071;-61
2021/08/16 01:23:42;;;;;;;11.65;3.20;;;;;;;17.73;80.79;100893.03;5065239;28;20097;-60
2021/08/16 01:26:09;;;;;;;19.10;3.73;;;;;;;17.73;80.57;100888.53;5105516;27;20046;-61
2021/08/16 01:28:36;;;;;;;19.15;3.63;;;;;;;18.27;78.37;100879.16;5097689;27;20126;-61
2021/08/16 01:31:04;;;;;;;20.90;3.75;;;;;;;18.46;76.53;100879.44;5083893;28;20171;-61
2021/08/16 01:33:32;;;;;;;20.88;3.97;;;;;;;18.25;78.06;100885.66;5086960;28;20083;-61
2021/08/16 01:35:59;;;;;;;21.58;3.45;;;;;;;18.57;76.06;100890.31;5087406;28;20047;-60
2021/08/16 01:38:29;;;;;;;18.85;3.58;;;;;;;18.63;76.11;100887.91;5085990;28;20083;-61
2021/08/16 01:40:56;;;;;;;20.10;4.05;;;;;;;18.37;76.83;100884.91;5084174;28;20172;-61
2021/08/16 01:43:23;;;;;;;21.17;3.90;;;;;;;18.07;78.76;100887.00;5086208;28;20127;-61
2021/08/16 01:45:51;;;;;;;17.40;3.38;;;;;;;18.28;78.41;100883.44;5094421;28;20048;-60
2021/08/16 01:48:19;;;;;;;21.45;3.65;;;;;;;18.71;75.58;100879.75;5082423;28;20050;-62
2021/08/16 01:50:45;;;;;;;20.42;3.65;;;;;;;18.43;76.67;100878.00;5100732;28;20138;-61
2021/08/16 01:53:13;;;;;;;15.45;3.45;;;;;;;18.06;78.73;100880.03;5090461;28;20095;-60
2021/08/16 01:55:40;;;;;;;19.23;3.27;;;;;;;18.41;77.44;100874.72;5092403;28;20142;-61
2021/08/16 01:58:08;;;;;;;17.02;3.03;;;;;;;18.66;75.88;100880.38;5086314;28;20155;-59
2021/08/16 02:00:35;;;;;;;18.55;3.63;;;;;;;18.81;75.13;100869.59;5096796;28;20165;-61
2021/08/16 02:03:03;;;;;;;17.38;3.67;;;;;;;18.75;75.42;100867.72;5075487;28;20065;-59
2021/08/16 02:05:29;;;;;;;19.02;3.78;;;;;;;18.83;75.26;100867.56;5091933;28;20052;-61
2021/08/16 02:08:00;;;;;;;18.17;3.97;;;;;;;18.83;75.15;100872.06;5091980;28;20123;-61
2021/08/16 02:10:28;;;;;;;19.83;3.90;;;;;;;18.80;75.58;100869.78;5094259;27;20639;-61
2021/08/16 02:12:55;;;;;;;16.73;3.30;;;;;;;18.89;75.35;100866.75;5092275;28;20072;-61
2021/08/16 02:15:22;;;;;;;20.40;3.75;;;;;;;18.94;74.87;100867.00;5081121;28;20291;-61
2021/08/16 02:17:49;;;;;;;21.30;4.07;;;;;;;18.80;75.76;100862.66;5090772;28;20087;-61
2021/08/16 02:20:16;;;;;;;19.27;3.70;;;;;;;18.78;76.07;100862.00;5094754;28;20120;-61
2021/08/16 02:22:43;;;;;;;15.82;3.70;;;;;;;18.80;76.07;100860.00;5086257;28;20052;-61
2021/08/16 02:25:10;;;;;;;21.83;3.63;;;;;;;18.72;76.55;100866.28;5098048;28;20043;-61
2021/08/16 02:27:45;;;;;;;18.80;3.47;;;;;;;18.93;76.06;100853.91;5082968;27;21354;-61
2021/08/16 02:30:14;;;;;;;19.08;3.67;;;;;;;18.81;76.52;100872.25;5092448;28;20113;-60
2021/08/16 02:32:41;;;;;;;21.23;4.30;;;;;;;18.73;77.09;100861.78;5087536;28;20136;-61
2021/08/16 02:35:08;;;;;;;23.83;3.85;;;;;;;18.05;81.35;100854.50;5095974;28;20088;-61
2021/08/16 02:37:35;;;;;;;21.08;3.55;;;;;;;18.57;78.18;100862.94;5086017;28;20083;-61
2021/08/16 02:40:05;;;;;;;15.60;3.60;;;;;;;18.73;77.19;100862.59;5095392;28;20044;-61
2021/08/16 02:42:31;;;;;;;19.77;3.38;;;;;;;18.80;77.46;100861.81;5085075;28;20062;-61
2021/08/16 02:44:58;;;;;;;14.82;2.92;;;;;;;18.83;77.30;100859.59;5089453;28;20117;-61
2021/08/16 02:47:24;;;;;;;22.60;4.05;;;;;;;18.91;76.69;100861.25;5097584;28;20131;-61
2021/08/16 02:49:51;;;;;;;26.08;4.57;;;;;;;18.93;76.76;100859.22;5089386;28;20565;-61
2021/08/16 02:52:18;;;;;;;20.92;3.80;;;;;;;19.01;76.12;100855.56;5086833;28;20055;-61
2021/08/16 02:54:45;;;;;;;20.23;3.58;;;;;;;18.72;77.68;100857.50;5090129;28;20401;-60
2021/08/16 02:57:13;;;;;;;15.05;3.17;;;;;;;18.71;77.86;100864.63;5083867;28;20097;-61
2021/08/16 02:59:40;;;;;;;21.08;4.15;;;;;;;18.72;77.80;100857.50;5090651;28;20079;-61
2021/08/16 03:02:08;;;;;;;16.63;3.55;;;;;;;18.66;77.95;100859.13;5084756;28;20075;-61
2021/08/16 03:04:34;;;;;;;14.70;3.83;;;;;;;18.62;78.26;100862.34;5095807;28;20087;-61
2021/08/16 03:07:02;;;;;;;21.45;3.67;;;;;;;18.78;77.58;100856.69;5093088;27;20189;-61
2021/08/16 03:09:29;;;;;;;24.30;5.05;;;;;;;18.78;77.61;100867.31;5087125;28;20451;-60
2021/08/16 03:11:57;;;;;;;24.10;4.15;;;;;;;18.72;77.90;100860.16;5078582;27;20048;-61
2021/08/16 03:14:24;;;;;;;17.38;3.75;;;;;;;18.86;77.37;100847.75;5089253;28;20154;-61
2021/08/16 03:16:51;;;;;;;19.77;3.25;;;;;;;18.77;77.88;100852.38;5093488;28;20055;-61
2021/08/16 03:19:20;;;;;;;24.90;4.03;;;;;;;19.00;76.77;100854.75;5096241;28;20100;-60
2021/08/16 03:21:46;;;;;;;20.35;3.72;;;;;;;19.01;77.06;100860.88;5102286;28;20075;-60
2021/08/16 03:24:12;;;;;;;19.15;3.33;;;;;;;19.03;76.65;100856.16;5079458;28;20180;-61
2021/08/16 03:26:39;;;;;;;21.35;3.97;;;;;;;19.05;76.63;100857.63;5068579;28;20079;-60
2021/08/16 03:29:05;;;;;;;19.75;3.63;;;;;;;18.83;78.05;100859.59;5084562;28;20135;-60
2021/08/16 03:31:32;;;;;;;15.27;3.67;;;;;;;18.96;77.59;100861.47;5087501;28;20127;-62
2021/08/16 03:33:59;;;;;;;16.63;3.47;;;;;;;19.11;76.33;100850.66;5088005;27;20508;-61
2021/08/16 03:36:25;;;;;;;22.20;3.90;;;;;;;19.01;77.06;100850.22;5088657;28;20277;-61
2021/08/16 03:38:51;;;;;;;18.30;3.85;;;;;;;18.98;77.02;100845.34;5092215;28;20764;-61
2021/08/16 03:41:18;;;;;;;20.75;4.38;;;;;;;18.83;77.29;100859.59;5079536;28;20091;-61
2021/08/16 03:43:45;;;;;;;17.58;4.25;;;;;;;18.86;77.82;100853.06;5076619;28;20131;-60
2021/08/16 03:46:11;;;;;;;22.77;3.97;;;;;;;18.87;77.72;100852.84;5080132;28;20091;-61
2021/08/16 03:48:38;;;;;;;14.63;3.38;;;;;;;18.90;77.56;100849.00;5095855;28;20048;-62
2021/08/16 03:51:04;;;;;;;15.30;4.47;;;;;;;18.64;78.80;100853.19;5083479;28;20086;-61
2021/08/16 03:53:31;;;;;;;24.20;4.50;;;;;;;18.12;81.62;100844.75;5085694;28;20134;-61
2021/08/16 03:55:57;;;;;;;18.85;4.50;;;;;;;17.95;83.46;100857.53;5101349;28;20588;-61
2021/08/16 03:58:24;;;;;;;23.25;4.75;;;;;;;18.00;82.48;100848.97;5087856;28;20130;-61
2021/08/16 04:00:50;;;;;;;20.17;4.72;;;;;;;18.21;82.54;100840.13;5088495;28;20091;-61
2021/08/16 04:03:17;;;;;;;23.35;4.55;;;;;;;18.46;80.08;100845.72;5089327;28;20059;-60
2021/08/16 04:05:43;;;;;;;15.48;4.55;;;;;;;18.61;79.38;100845.59;5083968;28;20048;-61
2021/08/16 04:08:10;;;;;;;16.50;4.70;;;;;;;18.72;78.39;100836.25;5084549;28;20474;-61
2021/08/16 04:10:36;;;;;;;22.30;5.28;;;;;;;18.05;81.95;100835.91;5100587;27;20147;-60
2021/08/16 04:13:06;;;;;;;20.73;4.75;;;;;;;17.97;83.56;100842.22;5079827;28;20078;-61
2021/08/16 04:15:32;;;;;;;20.35;5.55;;;;;;;18.33;81.56;100840.38;5095095;28;20063;-61
2021/08/16 04:17:59;;;;;;;21.10;4.90;;;;;;;18.54;79.78;100840.28;5098401;28;20419;-61
2021/08/16 04:20:25;;;;;;;31.25;5.40;;;;;;;18.53;79.76;100832.50;5075395;28;20094;-61
2021/08/16 04:22:52;;;;;;;21.92;5.55;;;;;;;18.26;80.63;100840.31;5091838;28;20134;-58
2021/08/16 04:25:23;;;;;;;19.20;5.45;;;;;;;17.68;84.58;100842.38;5098259;27;20055;-61
2021/08/16 04:27:50;;;;;;;22.13;6.03;;;;;;;17.48;86.77;100828.97;5098725;27;20134;-61
2021/08/16 04:30:17;;;;;;;22.27;5.78;;;;;;;17.82;84.29;100835.34;5092227;28;20112;-60
2021/08/16 04:32:44;;;;;;;19.70;5.72;;;;;;;18.31;81.68;100824.63;5088492;28;20142;-61
2021/08/16 04:35:10;;;;;;;18.33;5.25;;;;;;;18.43;80.57;100830.22;5074967;28;20122;-61
2021/08/16 04:37:39;;;;;;;21.27;5.85;;;;;;;17.74;84.63;100831.84;5068272;28;20047;-61
2021/08/16 04:40:07;;;;;;;20.27;5.95;;;;;;;17.49;86.53;100834.09;5099727;28;20101;-61
2021/08/16 04:42:34;;;;;;;19.25;5.63;;;;;;;17.61;86.65;100841.53;5067822;28;20048;-62
2021/08/16 04:45:00;;;;;;;20.17;5.75;;;;;;;17.48;87.49;100831.63;5096025;28;20459;-62
2021/08/16 04:47:27;;;;;;;22.13;6.22;;;;;;;17.57;88.05;100833.13;5087917;28;20551;-62
2021/08/16 04:49:56;;;;;;;23.38;5.78;;;;;;;17.74;85.47;100823.06;5085707;28;20138;-63
2021/08/16 04:52:24;;;;;;;22.23;6.50;;;;;;;17.84;85.16;100825.38;5092149;28;20098;-61
2021/08/16 04:54:51;;;;;;;27.20;6.93;;;;;;;18.20;83.37;100814.56;5084692;28;20080;-62
2021/08/16 04:57:51;;;;;;;25.20;7.23;;;;;;;18.61;80.75;100816.38;5096769;28;20134;-63
2021/08/16 05:00:23;;;;;;;21.17;6.93;;;;;;;18.98;78.51;100810.78;5044701;28;20318;-63
2021/08/16 05:02:50;;;;;;;23.65;7.22;;;;;;;18.90;78.47;100814.44;5071805;28;20121;-63
2021/08/16 05:05:17;;;;;;;30.77;7.53;;;;;;;19.05;77.78;100806.28;5082613;28;20052;-60
2021/08/16 05:07:49;;;;;;;19.50;7.95;;;;;;;18.98;77.91;100814.25;5091830;28;20071;-63
2021/08/16 05:10:18;;;;;;;19.80;7.05;;;;;;;19.11;77.57;100808.13;5096056;27;20132;-63
2021/08/16 05:12:44;;;;;;;20.77;7.95;;;;;;;19.06;77.46;100813.25;5092301;28;20130;-57
2021/08/16 05:15:11;;;;;;;27.58;8.75;;;;;;;18.29;81.83;100823.22;5086942;28;20477;-60
2021/08/16 05:17:38;;;;;;;19.83;8.07;;;;;;;17.78;85.50;100821.66;5064903;28;20075;-60
2021/08/16 05:20:06;;;;;;;26.08;10.05;;;;;;;17.61;87.20;100822.97;5095069;28;20143;-63
2021/08/16 05:22:35;;;;;;;28.30;9.23;;;;;;;17.77;86.89;100818.16;5083732;28;20071;-59
2021/08/16 05:25:02;;;;;;;25.67;9.73;;;;;;;17.41;88.61;100828.91;5098567;28;20630;-63
2021/08/16 05:27:28;;;;;;;21.33;9.77;;;;;;;17.35;89.49;100819.91;5090019;27;21256;-63
2021/08/16 05:29:55;;;;;;;25.60;9.95;;;;;;;17.29;89.86;100820.66;5087149;28;20138;-62
2021/08/16 05:32:21;;;;;;;25.20;10.45;;;;;;;17.62;88.22;100817.47;5093347;28;20134;-63
2021/08/16 05:34:48;;;;;;;23.67;10.80;;;;;;;17.61;87.23;100818.47;5082977;28;20127;-61
2021/08/16 05:37:14;;;;;;;28.58;12.57;;;;;;;17.83;87.66;100813.09;5094091;28;20056;-60
2021/08/16 05:39:41;;;;;;;26.20;11.48;;;;;;;18.58;81.96;100804.31;5087340;28;20134;-62
2021/08/16 05:42:07;;;;;;;27.85;12.55;;;;;;;18.61;80.97;100815.56;5087534;28;20139;-61
2021/08/16 05:44:34;;;;;;;29.20;12.68;;;;;;;19.01;78.93;100811.16;5078716;28;20126;-62
2021/08/16 05:47:02;;;;;;;30.00;13.95;;;;;;;18.23;82.52;100805.38;5095986;28;20143;-63
2021/08/16 05:49:28;;;;;;;23.52;12.63;;;;;;;17.81;86.08;100810.63;5091946;28;20080;-62
2021/08/16 05:51:56;;;;;;;31.27;13.77;;;;;;;17.74;87.23;100805.31;5089153;28;20073;-63
2021/08/16 05:54:22;;;;;;;29.98;14.32;;;;;;;18.68;82.09;100816.38;5090783;28;20066;-62
2021/08/16 05:56:49;;;;;;;27.08;13.23;;;;;;;18.91;79.80;100808.09;5058179;28;20078;-60
2021/08/16 05:59:15;;;;;;;38.58;14.63;;;;;;;19.06;78.86;100805.28;5095373;28;20110;-62
2021/08/16 06:01:42;;;;;;;42.45;15.52;;;;;;;18.28;83.16;100813.59;5082344;28;20140;-63
2021/08/16 06:04:08;;;;;;;31.52;15.13;;;;;;;17.94;85.73;100816.06;5092621;28;20116;-62
2021/08/16 06:06:36;;;;;;;33.20;14.82;;;;;;;18.05;86.58;100816.53;5086683;28;20127;-62
2021/08/16 06:09:04;;;;;;;33.70;14.77;;;;;;;17.89;86.05;100813.16;5090727;27;20131;-62
2021/08/16 06:11:31;;;;;;;39.72;15.77;;;;;;;17.77;87.98;100807.56;5093533;28;20635;-63
2021/08/16 06:13:58;;;;;;;37.83;16.27;;;;;;;17.61;88.58;100809.69;5087891;28;20147;-63
2021/08/16 06:16:24;;;;;;;32.22;16.48;;;;;;;17.64;88.47;100810.13;5094002;28;20048;-61
2021/08/16 06:18:51;;;;;;;40.38;17.45;;;;;;;17.44;90.64;100812.63;5086990;28;20052;-62
2021/08/16 06:21:18;;;;;;;41.70;18.40;;;;;;;18.28;85.51;100813.59;5086920;28;20528;-62
2021/08/16 06:23:45;;;;;;;37.40;17.05;;;;;;;17.87;87.36;100811.72;5085955;28;20171;-61
2021/08/16 06:26:12;;;;;;;35.72;16.77;;;;;;;18.82;81.93;100812.78;5068255;28;20059;-62
2021/08/16 06:28:40;;;;;;;34.42;16.95;;;;;;;19.24;79.41;100797.50;5093897;28;20093;-62
2021/08/16 06:31:07;;;;;;;34.42;16.90;;;;;;;19.21;79.73;100815.69;5084273;28;20472;-63
2021/08/16 06:33:37;;;;;;;38.13;17.45;;;;;;;19.32;78.74;100815.91;5093355;28;20455;-63
2021/08/16 06:36:05;;;;;;;35.03;17.35;;;;;;;19.28;79.82;100821.84;5089526;28;20544;-62
2021/08/16 06:38:32;;;;;;;38.70;17.58;;;;;;;19.20;80.45;100819.41;5090909;28;20052;-63
2021/08/16 06:41:01;;;;;;;41.45;20.27;;;;;;;19.11;81.98;100822.25;5084585;28;20400;-60
2021/08/16 06:43:30;;;;;;;32.50;18.38;;;;;;;19.21;83.43;100819.19;5094099;28;20052;-62
2021/08/16 06:45:57;;;;;;;49.10;19.92;;;;;;;19.21;83.50;100824.50;5071173;28;20144;-62
2021/08/16 06:48:23;;;;;;;37.63;19.55;;;;;;;19.00;84.66;100825.50;5087531;28;20056;-59
2021/08/16 06:50:50;;;;;;;38.80;20.33;;;;;;;18.97;85.67;100825.88;5090245;28;20069;-61
2021/08/16 06:53:16;;;;;;;38.97;20.77;;;;;;;18.89;86.70;100821.56;5083372;28;20362;-62
2021/08/16 06:55:45;;;;;;;38.60;19.30;;;;;;;18.77;88.87;100817.84;5094087;28;20083;-62
2021/08/16 06:58:11;;;;;;;39.30;22.45;;;;;;;18.82;88.91;100825.25;5093885;28;20476;-62
2021/08/16 07:00:42;;;;;;;43.63;22.75;;;;;;;18.72;89.03;100834.41;5094504;28;20052;-62
2021/08/16 07:03:10;;;;;;;40.50;22.95;;;;;;;18.61;90.11;100820.88;5095909;28;20051;-62
2021/08/16 07:05:44;;;;;;;47.45;21.42;;;;;;;18.50;91.39;100831.06;5084332;28;20053;-62
2021/08/16 07:08:12;;;;;;;40.40;22.15;;;;;;;18.55;92.09;100835.78;5090330;28;20134;-61
2021/08/16 07:10:39;;;;;;;36.35;19.73;;;;;;;18.36;92.22;100827.50;5083713;28;20535;-62
2021/08/16 07:13:06;;;;;;;40.92;20.58;;;;;;;18.35;92.67;100831.19;5095808;28;20135;-62
2021/08/16 07:15:33;;;;;;;36.03;20.42;;;;;;;18.43;91.81;100832.88;5084616;28;20136;-62
2021/08/16 07:17:59;;;;;;;34.17;19.45;;;;;;;18.04;95.80;100834.28;5098283;28;20160;-62
2021/08/16 07:20:30;;;;;;;43.88;22.40;;;;;;;18.33;94.82;100830.56;5078428;28;20040;-62
2021/08/16 07:22:57;;;;;;;42.25;22.05;;;;;;;17.54;100.00;100844.09;5093645;28;20132;-60
2021/08/16 07:25:24;;;;;;;41.35;21.30;;;;;;;17.94;100.00;100839.13;5088060;28;20051;-62
2021/08/16 07:27:50;;;;;;;42.70;22.83;;;;;;;18.50;95.73;100856.78;5089430;28;20047;-61
2021/08/16 07:30:18;;;;;;;46.80;22.00;;;;;;;18.69;93.72;100852.56;5072771;28;20130;-62
2021/08/16 07:32:44;;;;;;;40.72;21.73;;;;;;;18.89;93.29;100845.50;5081711;28;20220;-61
2021/08/16 07:35:10;;;;;;;41.00;20.20;;;;;;;18.63;93.05;100851.53;5088549;28;20498;-62
2021/08/16 07:37:37;;;;;;;39.13;20.42;;;;;;;18.74;93.92;100856.28;5088932;28;20079;-62
2021/08/16 07:40:04;;;;;;;36.83;19.90;;;;;;;18.53;94.00;100854.56;5097510;28;20079;-62
2021/08/16 07:42:31;;;;;;;38.05;21.85;;;;;;;17.75;100.00;100862.63;5097498;28;20131;-62
2021/08/16 07:45:00;;;;;;;40.00;18.85;;;;;;;18.56;98.57;100878.06;5088318;28;20043;-62
2021/08/16 07:47:27;;;;;;;27.98;15.93;;;;;;;17.73;100.00;100877.94;5099123;28;20050;-63
2021/08/16 07:49:54;;;;;;;17.15;10.13;;;;;;;17.51;100.00;100869.19;5091437;28;20143;-62
2021/08/16 07:52:20;;;;;;;27.52;12.10;;;;;;;17.32;100.00;100881.25;5096875;28;20058;-62
2021/08/16 07:54:47;;;;;;;20.60;10.90;;;;;;;17.32;100.00;100875.94;5089387;28;20131;-62
2021/08/16 07:57:13;;;;;;;21.15;8.65;;;;;;;17.58;100.00;100882.50;5096864;27;20483;-62
2021/08/16 07:59:40;;;;;;;19.48;9.27;;;;;;;18.22;100.00;100872.78;5088364;28;20052;-62
2021/08/16 08:02:06;;;;;;;21.48;7.75;;;;;;;18.56;97.28;100879.88;5075965;28;20047;-62
2021/08/16 08:04:33;;;;;;;14.48;5.47;;;;;;;17.96;99.99;100879.56;5089525;28;20060;-62
2021/08/16 08:07:01;;;;;;;18.33;5.55;;;;;;;17.89;100.00;100886.66;5095822;28;20078;-62
2021/08/16 08:09:28;;;;;;;21.02;6.50;;;;;;;17.66;100.00;100887.69;5087517;28;20079;-60
2021/08/16 08:11:55;;;;;;;14.32;5.22;;;;;;;17.69;100.00;100891.78;5089806;28;20086;-61
2021/08/16 08:14:21;;;;;;;21.38;5.40;;;;;;;17.55;100.00;100898.81;5095789;28;20139;-60
2021/08/16 08:16:48;;;;;;;17.48;4.70;;;;;;;18.64;93.58;100894.84;5091346;28;20076;-62
2021/08/16 08:19:14;;;;;;;18.65;5.97;;;;;;;18.37;97.17;100898.19;5095416;28;20136;-62
2021/08/16 08:21:41;;;;;;;17.60;4.88;;;;;;;18.21;97.31;100908.31;5095193;28;20052;-61
2021/08/16 08:24:07;;;;;;;16.63;4.45;;;;;;;17.98;95.86;100920.81;5090955;28;20058;-56
2021/08/16 08:26:34;;;;;;;16.15;4.65;;;;;;;17.51;100.00;100924.06;5095534;27;20087;-61
2021/08/16 08:29:00;;;;;;;11.07;4.45;;;;;;;17.45;100.00;100930.13;5099664;28;20130;-61
2021/08/16 08:31:27;;;;;;;14.88;5.00;;;;;;;18.08;97.23;100944.38;5099372;28;20051;-61
2021/08/16 08:33:54;;;;;;;15.48;4.78;;;;;;;17.88;91.73;100957.47;5085384;28;20052;-61
2021/08/16 08:36:20;;;;;;;14.52;4.97;;;;;;;18.15;94.14;100949.72;5097254;28;20120;-62
2021/08/16 08:38:47;;;;;;;11.60;4.45;;;;;;;18.51;89.26;100957.53;5089807;28;20126;-61
2021/08/16 08:41:16;;;;;;;13.52;5.00;;;;;;;18.72;85.67;100961.13;5091306;28;20326;-61
2021/08/16 08:43:45;;;;;;;17.77;5.28;;;;;;;18.60;83.26;100960.81;5090336;28;20084;-61
2021/08/16 08:46:13;;;;;;;12.82;5.07;;;;;;;17.74;88.00;100958.34;5090204;28;20055;-61
2021/08/16 08:48:40;;;;;;;;;;;;;;;17.38;97.30;100960.03;5098925;28;20751;-59
2021/08/16 08:51:07;;;;;;;11.07;5.25;;;;;;;17.68;94.10;100954.63;5083577;28;19930;-61
2021/08/16 08:53:34;;;;;;;13.07;5.13;;;;;;;18.08;87.81;100960.28;5084895;28;20055;-61
2021/08/16 08:56:00;;;;;;;17.20;5.38;;;;;;;17.37;92.44;100961.03;5101145;28;20441;-60
2021/08/16 08:58:27;;;;;;;17.77;5.45;;;;;;;17.50;92.64;100956.88;5082636;28;20463;-62
2021/08/16 09:00:54;;;;;;;14.98;5.50;;;;;;;17.43;97.40;100956.81;5094278;28;20460;-60
2021/08/16 09:03:20;;;;;;;14.55;5.72;;;;;;;17.91;95.17;100961.56;5084433;28;20367;-61
2021/08/16 09:05:58;;;;;;;16.27;6.13;;;;;;;18.90;90.09;100964.09;5089390;28;20410;-61
2021/08/16 09:08:31;;;;;;;13.35;5.75;;;;;;;18.15;85.95;100962.97;5097029;27;20074;-60
2021/08/16 09:11:25;;;;;;;17.20;4.95;;;;;;;17.52;91.06;100970.78;5094622;28;20052;-61
2021/08/16 09:13:55;;;;;;;18.80;5.25;;;;;;;17.44;92.72;100968.25;5087564;28;20119;-62
2021/08/16 09:16:27;;;;;;;14.95;5.47;;;;;;;18.18;87.98;100971.38;5094885;28;20174;-62
2021/08/16 09:18:54;;;;;;;16.70;5.50;;;;;;;17.77;91.71;100968.56;5056156;28;20650;-61
2021/08/16 09:21:30;;;;;;;13.80;5.57;;;;;;;18.61;89.34;100964.31;5090859;28;20078;-61
2021/08/16 09:23:59;;;;;;;18.55;6.00;;;;;;;18.28;87.40;100971.06;5091187;28;20044;-59
2021/08/16 09:26:29;;;;;;;22.50;5.90;;;;;;;18.02;90.77;100976.19;5087668;27;20087;-61
2021/08/16 09:29:24;;;;;;;21.00;6.40;;;;;;;17.98;91.25;100981.03;5094063;28;20052;-61
2021/08/16 09:31:52;;;;;;;17.02;5.63;;;;;;;17.91;92.88;100983.63;5085116;28;20047;-61
2021/08/16 09:34:33;;;;;;;17.42;6.32;;;;;;;18.55;93.55;100990.66;5093905;28;20384;-61
2021/08/16 09:37:03;;;;;;;22.80;6.53;;;;;;;19.50;80.32;100988.22;5091664;28;20394;-61
2021/08/16 09:39:33;;;;;;;15.80;5.70;;;;;;;19.22;80.99;100985.69;5093005;28;20072;-61
2021/08/16 09:42:02;;;;;;;16.90;5.25;;;;;;;18.61;84.00;100980.28;5089696;28;20505;-62
2021/08/16 09:44:30;;;;;;;13.70;4.82;;;;;;;18.42;88.37;100992.41;5087655;28;20087;-61
2021/08/16 09:47:04;;;;;;;17.67;5.93;;;;;;;19.03;78.00;100992.56;5087595;28;20086;-61
2021/08/16 09:49:32;;;;;;;20.35;5.45;;;;;;;18.22;82.89;100997.56;5089092;28;20072;-61
2021/08/16 09:52:10;;;;;;;23.63;5.90;;;;;;;17.78;82.75;101002.06;5100851;28;20248;-60
2021/08/16 09:54:39;;;;;;;15.88;5.60;;;;;;;17.81;87.54;100996.38;5081641;28;20087;-61
2021/08/16 09:57:08;;;;;;;21.80;5.57;;;;;;;19.11;76.52;100995.06;5101938;28;20047;-61
2021/08/16 09:59:35;;;;;;;18.52;5.93;;;;;;;18.44;78.11;101008.97;5077799;28;20566;-57
2021/08/16 10:02:04;;;;;;;19.38;5.30;;;;;;;18.08;82.89;101004.59;5095490;28;20047;-58
2021/08/16 10:04:32;;;;;;;19.15;5.82;;;;;;;18.88;81.83;101013.16;5088503;28;20052;-61
2021/08/16 10:07:01;;;;;;;22.80;5.80;;;;;;;19.87;73.34;101006.53;5104432;27;20047;-60
2021/08/16 10:09:47;;;;;;;13.80;5.05;;;;;;;20.37;71.43;101006.13;5089536;28;20056;-58
2021/08/16 10:12:15;;;;;;;25.50;5.82;;;;;;;20.58;68.71;100991.72;5101231;28;20050;-61
2021/08/16 10:14:46;;;;;;;20.58;5.95;;;;;;;20.61;66.48;100997.50;5081084;28;20136;-61
2021/08/16 10:17:22;;;;;;;18.80;5.82;;;;;;;20.65;66.86;101009.38;5085126;28;20052;-61
2021/08/16 10:19:52;;;;;;;20.52;6.47;;;;;;;19.23;73.42;101015.75;5089044;28;20092;-61
2021/08/16 10:22:18;;;;;;;21.70;6.10;;;;;;;18.67;75.76;101029.97;5093278;28;20096;-60
2021/08/16 10:24:44;;;;;;;20.63;6.90;;;;;;;18.63;78.75;101026.88;5090407;28;20127;-61
2021/08/16 10:27:11;;;;;;;22.20;6.53;;;;;;;18.37;76.83;101035.47;5082504;27;20137;-61
2021/08/16 10:29:40;;;;;;;19.48;6.90;;;;;;;18.63;76.99;101034.84;5073350;28;20055;-61
2021/08/16 10:32:20;;;;;;;22.92;6.55;;;;;;;18.94;80.74;101038.94;5095169;28;20094;-62
2021/08/16 10:34:46;;;;;;;24.83;7.15;;;;;;;19.20;79.26;101040.09;5088226;28;20056;-61
2021/08/16 10:37:15;;;;;;;19.63;5.85;;;;;;;19.44;72.55;101041.41;5099725;28;20075;-61
2021/08/16 10:39:46;;;;;;;23.02;7.07;;;;;;;19.51;73.08;101043.06;5079811;28;20423;-56
2021/08/16 10:42:15;;;;;;;27.52;7.38;;;;;;;19.71;72.68;101037.81;5083438;28;20048;-60
2021/08/16 10:44:44;;;;;;;22.55;6.70;;;;;;;20.69;66.68;101036.44;5081321;28;20164;-59
2021/08/16 10:47:24;;;;;;;20.33;7.72;;;;;;;20.97;63.76;101043.34;5091713;28;20075;-61
2021/08/16 10:50:12;;;;;;;22.45;6.97;;;;;;;20.40;65.94;101035.81;5085261;28;20031;-61
2021/08/16 10:52:41;;;;;;;18.08;6.72;;;;;;;19.99;63.28;101041.34;5094466;28;20090;-61
2021/08/16 10:55:11;;;;;;;17.15;6.38;;;;;;;19.87;65.80;101049.13;5083076;28;20048;-60
2021/08/16 10:57:39;;;;;;;22.13;7.28;;;;;;;19.55;65.51;101043.50;5089514;28;20127;-62
2021/08/16 11:00:09;;;;;;;20.58;7.15;;;;;;;19.57;66.57;101052.09;5096776;28;20511;-61
2021/08/16 11:02:36;;;;;;;20.50;7.05;;;;;;;19.44;67.27;101041.41;5080987;28;20072;-60
2021/08/16 11:05:04;;;;;;;20.10;7.60;;;;;;;19.52;69.24;101046.53;5090816;28;20051;-61
2021/08/16 11:07:31;;;;;;;26.67;7.20;;;;;;;19.47;68.19;101041.00;5095404;27;20132;-61
2021/08/16 11:10:01;;;;;;;24.77;6.60;;;;;;;19.58;65.90;101045.72;5092276;28;20100;-61
2021/08/16 11:12:32;;;;;;;19.15;7.13;;;;;;;19.72;68.12;101060.78;5080660;28;21497;-62
2021/08/16 11:15:00;;;;;;;15.13;6.68;;;;;;;19.76;65.46;101055.88;5093397;28;20774;-59
2021/08/16 11:17:31;;;;;;;21.65;6.93;;;;;;;20.02;68.94;101054.28;5093135;28;20055;-62